sensor_id;sensor_type;location;lat;lon;timestamp;P1;durP1;ratioP1;P2;durP2;ratioP2
4122;SDS011;2075;51.062;6.920;2022-11-15T00:02:00;14.50;;;7.57;;
4122;SDS011;2075;51.062;6.920;2022-11-15T00:05:06;9.53;;;7.63;;
4122;SDS011;2075;51.062;6.920;2022-11-15T00:08:11;18.10;;;8.43;;
4122;SDS011;2075;51.062;6.920;2022-11-15T00:11:15;12.90;;;7.97;;
4122;SDS011;2075;51.062;6.920;2022-11-15T00:14:21;13.80;;;7.70;;
4122;SDS011;2075;51.062;6.920;2022-11-15T00:17:25;11.10;;;8.00;;
4122;SDS011;2075;51.062;6.920;2022-11-15T00:20:29;16.73;;;8.00;;
4122;SDS011;2075;51.062;6.920;2022-11-15T00:23:33;11.17;;;8.10;;
4122;SDS011;2075;51.062;6.920;2022-11-15T00:26:38;11.13;;;8.17;;
4122;SDS011;2075;51.062;6.920;2022-11-15T00:29:44;10.17;;;8.10;;
4122;SDS011;2075;51.062;6.920;2022-11-15T00:32:48;11.43;;;7.73;;
4122;SDS011;2075;51.062;6.920;2022-11-15T00:35:52;8.93;;;7.13;;
4122;SDS011;2075;51.062;6.920;2022-11-15T00:38:56;11.97;;;8.03;;
4122;SDS011;2075;51.062;6.920;2022-11-15T00:42:01;12.80;;;8.50;;
4122;SDS011;2075;51.062;6.920;2022-11-15T00:45:07;10.77;;;8.30;;
4122;SDS011;2075;51.062;6.920;2022-11-15T00:48:12;10.93;;;7.50;;
4122;SDS011;2075;51.062;6.920;2022-11-15T00:51:16;14.00;;;8.07;;
4122;SDS011;2075;51.062;6.920;2022-11-15T00:54:20;11.43;;;7.60;;
4122;SDS011;2075;51.062;6.920;2022-11-15T00:57:25;9.20;;;7.23;;
4122;SDS011;2075;51.062;6.920;2022-11-15T01:00:30;10.67;;;8.10;;
4122;SDS011;2075;51.062;6.920;2022-11-15T01:03:35;10.90;;;8.00;;
4122;SDS011;2075;51.062;6.920;2022-11-15T01:06:39;12.87;;;7.73;;
4122;SDS011;2075;51.062;6.920;2022-11-15T01:09:43;15.37;;;7.90;;
4122;SDS011;2075;51.062;6.920;2022-11-15T01:12:48;17.83;;;7.80;;
4122;SDS011;2075;51.062;6.920;2022-11-15T01:15:54;9.30;;;7.23;;
4122;SDS011;2075;51.062;6.920;2022-11-15T01:18:58;9.50;;;7.30;;
4122;SDS011;2075;51.062;6.920;2022-11-15T01:22:03;12.53;;;8.77;;
4122;SDS011;2075;51.062;6.920;2022-11-15T01:25:07;19.87;;;8.00;;
4122;SDS011;2075;51.062;6.920;2022-11-15T01:28:11;16.77;;;8.43;;
4122;SDS011;2075;51.062;6.920;2022-11-15T01:31:17;11.13;;;7.43;;
4122;SDS011;2075;51.062;6.920;2022-11-15T01:34:23;23.60;;;7.47;;
4122;SDS011;2075;51.062;6.920;2022-11-15T01:37:27;10.80;;;7.17;;
4122;SDS011;2075;51.062;6.920;2022-11-15T01:40:31;13.77;;;7.77;;
4122;SDS011;2075;51.062;6.920;2022-11-15T01:43:36;18.27;;;8.13;;
4122;SDS011;2075;51.062;6.920;2022-11-15T01:46:41;17.00;;;7.80;;
4122;SDS011;2075;51.062;6.920;2022-11-15T01:49:50;13.13;;;7.83;;
4122;SDS011;2075;51.062;6.920;2022-11-15T01:52:59;12.17;;;7.50;;
4122;SDS011;2075;51.062;6.920;2022-11-15T01:56:03;14.13;;;8.27;;
4122;SDS011;2075;51.062;6.920;2022-11-15T01:59:09;9.77;;;8.30;;
4122;SDS011;2075;51.062;6.920;2022-11-15T02:02:16;11.70;;;7.83;;
4122;SDS011;2075;51.062;6.920;2022-11-15T02:05:20;15.67;;;8.70;;
4122;SDS011;2075;51.062;6.920;2022-11-15T02:08:24;10.43;;;7.97;;
4122;SDS011;2075;51.062;6.920;2022-11-15T02:11:29;11.90;;;7.97;;
4122;SDS011;2075;51.062;6.920;2022-11-15T02:14:33;13.03;;;8.07;;
4122;SDS011;2075;51.062;6.920;2022-11-15T02:17:47;11.33;;;7.53;;
4122;SDS011;2075;51.062;6.920;2022-11-15T02:21:06;11.60;;;8.17;;
4122;SDS011;2075;51.062;6.920;2022-11-15T02:24:22;15.07;;;8.10;;
4122;SDS011;2075;51.062;6.920;2022-11-15T02:31:13;13.00;;;7.90;;
4122;SDS011;2075;51.062;6.920;2022-11-15T02:34:21;8.57;;;7.23;;
4122;SDS011;2075;51.062;6.920;2022-11-15T02:37:34;9.90;;;7.33;;
4122;SDS011;2075;51.062;6.920;2022-11-15T02:40:45;15.70;;;7.53;;
4122;SDS011;2075;51.062;6.920;2022-11-15T02:43:59;12.40;;;7.53;;
4122;SDS011;2075;51.062;6.920;2022-11-15T02:47:08;15.27;;;7.50;;
4122;SDS011;2075;51.062;6.920;2022-11-15T02:50:17;11.50;;;8.00;;
4122;SDS011;2075;51.062;6.920;2022-11-15T02:53:24;10.30;;;7.40;;
4122;SDS011;2075;51.062;6.920;2022-11-15T02:56:29;11.57;;;7.80;;
4122;SDS011;2075;51.062;6.920;2022-11-15T03:06:53;10.53;;;7.87;;
4122;SDS011;2075;51.062;6.920;2022-11-15T03:10:02;12.40;;;7.63;;
4122;SDS011;2075;51.062;6.920;2022-11-15T03:13:16;13.33;;;9.10;;
4122;SDS011;2075;51.062;6.920;2022-11-15T03:16:29;10.40;;;7.73;;
4122;SDS011;2075;51.062;6.920;2022-11-15T03:19:40;10.33;;;8.00;;
4122;SDS011;2075;51.062;6.920;2022-11-15T03:22:48;14.40;;;7.57;;
4122;SDS011;2075;51.062;6.920;2022-11-15T03:25:54;12.10;;;7.60;;
4122;SDS011;2075;51.062;6.920;2022-11-15T03:29:01;11.33;;;7.10;;
4122;SDS011;2075;51.062;6.920;2022-11-15T03:32:09;9.70;;;6.83;;
4122;SDS011;2075;51.062;6.920;2022-11-15T03:35:19;11.13;;;7.50;;
4122;SDS011;2075;51.062;6.920;2022-11-15T03:38:25;12.17;;;7.60;;
4122;SDS011;2075;51.062;6.920;2022-11-15T03:41:35;14.07;;;8.33;;
4122;SDS011;2075;51.062;6.920;2022-11-15T03:44:45;10.70;;;7.57;;
4122;SDS011;2075;51.062;6.920;2022-11-15T03:47:54;10.13;;;7.77;;
4122;SDS011;2075;51.062;6.920;2022-11-15T03:51:06;18.67;;;7.60;;
4122;SDS011;2075;51.062;6.920;2022-11-15T03:54:11;10.20;;;7.00;;
4122;SDS011;2075;51.062;6.920;2022-11-15T03:57:16;9.87;;;6.87;;
4122;SDS011;2075;51.062;6.920;2022-11-15T04:00:20;7.63;;;6.70;;
4122;SDS011;2075;51.062;6.920;2022-11-15T04:03:24;11.97;;;6.73;;
4122;SDS011;2075;51.062;6.920;2022-11-15T04:06:30;10.40;;;8.00;;
4122;SDS011;2075;51.062;6.920;2022-11-15T04:09:34;11.70;;;7.93;;
4122;SDS011;2075;51.062;6.920;2022-11-15T04:12:59;10.70;;;6.97;;
4122;SDS011;2075;51.062;6.920;2022-11-15T04:16:06;7.37;;;6.27;;
4122;SDS011;2075;51.062;6.920;2022-11-15T04:19:10;12.53;;;7.50;;
4122;SDS011;2075;51.062;6.920;2022-11-15T04:22:34;7.93;;;6.63;;
4122;SDS011;2075;51.062;6.920;2022-11-15T04:25:57;7.10;;;6.07;;
4122;SDS011;2075;51.062;6.920;2022-11-15T04:29:03;13.50;;;6.93;;
4122;SDS011;2075;51.062;6.920;2022-11-15T04:32:25;6.80;;;5.90;;
4122;SDS011;2075;51.062;6.920;2022-11-15T04:35:29;11.50;;;6.70;;
4122;SDS011;2075;51.062;6.920;2022-11-15T04:38:35;9.80;;;7.37;;
4122;SDS011;2075;51.062;6.920;2022-11-15T04:41:39;9.87;;;6.70;;
4122;SDS011;2075;51.062;6.920;2022-11-15T04:44:43;9.23;;;7.13;;
4122;SDS011;2075;51.062;6.920;2022-11-15T04:47:48;7.60;;;6.70;;
4122;SDS011;2075;51.062;6.920;2022-11-15T04:50:52;9.70;;;7.10;;
4122;SDS011;2075;51.062;6.920;2022-11-15T04:53:57;9.13;;;7.50;;
4122;SDS011;2075;51.062;6.920;2022-11-15T04:57:01;8.50;;;6.73;;
4122;SDS011;2075;51.062;6.920;2022-11-15T05:00:06;14.87;;;7.50;;
4122;SDS011;2075;51.062;6.920;2022-11-15T05:03:12;9.63;;;6.93;;
4122;SDS011;2075;51.062;6.920;2022-11-15T05:06:34;8.67;;;6.50;;
4122;SDS011;2075;51.062;6.920;2022-11-15T05:09:40;10.03;;;7.03;;
4122;SDS011;2075;51.062;6.920;2022-11-15T05:12:44;13.53;;;7.57;;
4122;SDS011;2075;51.062;6.920;2022-11-15T05:15:50;11.00;;;7.17;;
4122;SDS011;2075;51.062;6.920;2022-11-15T05:18:55;9.20;;;6.90;;
4122;SDS011;2075;51.062;6.920;2022-11-15T05:21:59;9.80;;;7.00;;
4122;SDS011;2075;51.062;6.920;2022-11-15T05:25:05;8.40;;;6.37;;
4122;SDS011;2075;51.062;6.920;2022-11-15T05:28:10;12.57;;;6.63;;
4122;SDS011;2075;51.062;6.920;2022-11-15T05:31:14;10.20;;;6.77;;
4122;SDS011;2075;51.062;6.920;2022-11-15T05:34:19;7.00;;;5.70;;
4122;SDS011;2075;51.062;6.920;2022-11-15T05:37:25;11.43;;;7.00;;
4122;SDS011;2075;51.062;6.920;2022-11-15T05:40:30;7.57;;;5.80;;
4122;SDS011;2075;51.062;6.920;2022-11-15T05:43:37;8.53;;;6.87;;
4122;SDS011;2075;51.062;6.920;2022-11-15T05:46:43;8.80;;;6.40;;
4122;SDS011;2075;51.062;6.920;2022-11-15T05:49:48;7.13;;;5.53;;
4122;SDS011;2075;51.062;6.920;2022-11-15T05:52:55;8.20;;;6.30;;
4122;SDS011;2075;51.062;6.920;2022-11-15T05:56:02;6.40;;;5.40;;
4122;SDS011;2075;51.062;6.920;2022-11-15T05:59:08;7.10;;;5.70;;
4122;SDS011;2075;51.062;6.920;2022-11-15T06:02:13;6.90;;;5.47;;
4122;SDS011;2075;51.062;6.920;2022-11-15T06:05:18;6.17;;;5.57;;
4122;SDS011;2075;51.062;6.920;2022-11-15T06:08:22;6.70;;;5.50;;
4122;SDS011;2075;51.062;6.920;2022-11-15T06:11:28;5.80;;;5.20;;
4122;SDS011;2075;51.062;6.920;2022-11-15T06:14:32;5.00;;;4.57;;
4122;SDS011;2075;51.062;6.920;2022-11-15T06:17:36;7.20;;;5.10;;
4122;SDS011;2075;51.062;6.920;2022-11-15T06:20:41;6.03;;;5.00;;
4122;SDS011;2075;51.062;6.920;2022-11-15T06:23:47;9.00;;;5.67;;
4122;SDS011;2075;51.062;6.920;2022-11-15T06:26:53;8.73;;;5.40;;
4122;SDS011;2075;51.062;6.920;2022-11-15T06:29:58;5.97;;;5.20;;
4122;SDS011;2075;51.062;6.920;2022-11-15T06:33:03;6.07;;;4.90;;
4122;SDS011;2075;51.062;6.920;2022-11-15T06:36:09;6.53;;;4.50;;
4122;SDS011;2075;51.062;6.920;2022-11-15T06:39:16;7.17;;;4.77;;
4122;SDS011;2075;51.062;6.920;2022-11-15T06:42:22;5.47;;;4.80;;
4122;SDS011;2075;51.062;6.920;2022-11-15T06:45:26;4.33;;;3.93;;
4122;SDS011;2075;51.062;6.920;2022-11-15T06:48:31;5.13;;;4.63;;
4122;SDS011;2075;51.062;6.920;2022-11-15T06:51:36;6.53;;;4.23;;
4122;SDS011;2075;51.062;6.920;2022-11-15T06:54:40;4.73;;;4.20;;
4122;SDS011;2075;51.062;6.920;2022-11-15T06:57:50;5.00;;;4.50;;
4122;SDS011;2075;51.062;6.920;2022-11-15T07:00:58;5.30;;;4.80;;
4122;SDS011;2075;51.062;6.920;2022-11-15T07:04:03;6.87;;;4.70;;
4122;SDS011;2075;51.062;6.920;2022-11-15T07:07:10;4.70;;;4.30;;
4122;SDS011;2075;51.062;6.920;2022-11-15T07:10:15;6.90;;;4.30;;
4122;SDS011;2075;51.062;6.920;2022-11-15T07:13:21;5.00;;;4.57;;
4122;SDS011;2075;51.062;6.920;2022-11-15T07:16:28;5.10;;;3.83;;
4122;SDS011;2075;51.062;6.920;2022-11-15T07:19:32;4.83;;;4.13;;
4122;SDS011;2075;51.062;6.920;2022-11-15T07:22:37;7.50;;;4.50;;
4122;SDS011;2075;51.062;6.920;2022-11-15T07:25:43;7.53;;;3.53;;
4122;SDS011;2075;51.062;6.920;2022-11-15T07:28:49;6.53;;;4.37;;
4122;SDS011;2075;51.062;6.920;2022-11-15T07:31:53;4.53;;;3.73;;
4122;SDS011;2075;51.062;6.920;2022-11-15T07:34:58;5.70;;;4.10;;
4122;SDS011;2075;51.062;6.920;2022-11-15T07:38:02;3.80;;;3.50;;
4122;SDS011;2075;51.062;6.920;2022-11-15T07:41:08;4.20;;;3.80;;
4122;SDS011;2075;51.062;6.920;2022-11-15T07:44:14;4.53;;;4.10;;
4122;SDS011;2075;51.062;6.920;2022-11-15T07:47:18;4.70;;;4.30;;
4122;SDS011;2075;51.062;6.920;2022-11-15T07:50:26;7.20;;;4.40;;
4122;SDS011;2075;51.062;6.920;2022-11-15T07:53:32;4.77;;;3.40;;
4122;SDS011;2075;51.062;6.920;2022-11-15T07:56:37;5.73;;;3.90;;
4122;SDS011;2075;51.062;6.920;2022-11-15T07:59:44;4.33;;;3.90;;
4122;SDS011;2075;51.062;6.920;2022-11-15T08:02:49;8.77;;;4.10;;
4122;SDS011;2075;51.062;6.920;2022-11-15T08:05:54;5.73;;;4.97;;
4122;SDS011;2075;51.062;6.920;2022-11-15T08:09:00;8.80;;;5.67;;
4122;SDS011;2075;51.062;6.920;2022-11-15T08:12:05;7.03;;;5.70;;
4122;SDS011;2075;51.062;6.920;2022-11-15T08:15:15;6.70;;;5.70;;
4122;SDS011;2075;51.062;6.920;2022-11-15T08:18:20;4.70;;;4.20;;
4122;SDS011;2075;51.062;6.920;2022-11-15T08:21:26;5.73;;;4.83;;
4122;SDS011;2075;51.062;6.920;2022-11-15T08:24:31;5.40;;;4.40;;
4122;SDS011;2075;51.062;6.920;2022-11-15T08:27:56;7.17;;;4.10;;
4122;SDS011;2075;51.062;6.920;2022-11-15T08:31:16;4.83;;;3.60;;
4122;SDS011;2075;51.062;6.920;2022-11-15T08:34:25;11.03;;;4.73;;
4122;SDS011;2075;51.062;6.920;2022-11-15T08:37:36;7.83;;;5.13;;
4122;SDS011;2075;51.062;6.920;2022-11-15T08:40:50;7.07;;;3.87;;
4122;SDS011;2075;51.062;6.920;2022-11-15T08:48:13;10.63;;;7.27;;
4122;SDS011;2075;51.062;6.920;2022-11-15T08:51:17;3.40;;;3.10;;
4122;SDS011;2075;51.062;6.920;2022-11-15T08:54:21;3.33;;;3.13;;
4122;SDS011;2075;51.062;6.920;2022-11-15T08:57:28;4.23;;;3.67;;
4122;SDS011;2075;51.062;6.920;2022-11-15T09:09:08;2.53;;;2.33;;
4122;SDS011;2075;51.062;6.920;2022-11-15T09:25:14;2.30;;;2.20;;
4122;SDS011;2075;51.062;6.920;2022-11-15T09:29:07;4.10;;;2.40;;
4122;SDS011;2075;51.062;6.920;2022-11-15T09:32:38;5.97;;;2.47;;
4122;SDS011;2075;51.062;6.920;2022-11-15T09:35:59;4.87;;;1.87;;
4122;SDS011;2075;51.062;6.920;2022-11-15T09:39:36;5.20;;;1.90;;
4122;SDS011;2075;51.062;6.920;2022-11-15T09:43:17;1.63;;;1.53;;
4122;SDS011;2075;51.062;6.920;2022-11-15T09:46:55;2.27;;;2.07;;
4122;SDS011;2075;51.062;6.920;2022-11-15T09:50:12;2.27;;;2.07;;
4122;SDS011;2075;51.062;6.920;2022-11-15T09:53:00;10.33;;;3.50;;
4122;SDS011;2075;51.062;6.920;2022-11-15T09:55:47;4.73;;;2.40;;
4122;SDS011;2075;51.062;6.920;2022-11-15T09:58:42;7.70;;;2.13;;
4122;SDS011;2075;51.062;6.920;2022-11-15T10:01:41;2.00;;;1.90;;
4122;SDS011;2075;51.062;6.920;2022-11-15T10:04:32;3.13;;;1.70;;
4122;SDS011;2075;51.062;6.920;2022-11-15T10:07:18;4.30;;;1.50;;
4122;SDS011;2075;51.062;6.920;2022-11-15T10:10:13;3.70;;;2.00;;
4122;SDS011;2075;51.062;6.920;2022-11-15T10:13:07;3.27;;;1.90;;
4122;SDS011;2075;51.062;6.920;2022-11-15T10:16:04;2.97;;;1.77;;
4122;SDS011;2075;51.062;6.920;2022-11-15T10:19:04;2.50;;;1.90;;
4122;SDS011;2075;51.062;6.920;2022-11-15T10:21:59;1.73;;;1.53;;
4122;SDS011;2075;51.062;6.920;2022-11-15T10:24:52;2.60;;;2.40;;
4122;SDS011;2075;51.062;6.920;2022-11-15T10:27:53;4.43;;;2.50;;
4122;SDS011;2075;51.062;6.920;2022-11-15T10:30:41;2.50;;;2.30;;
4122;SDS011;2075;51.062;6.920;2022-11-15T10:33:31;1.80;;;1.70;;
4122;SDS011;2075;51.062;6.920;2022-11-15T10:36:21;5.83;;;1.50;;
4122;SDS011;2075;51.062;6.920;2022-11-15T10:39:10;4.90;;;1.63;;
4122;SDS011;2075;51.062;6.920;2022-11-15T10:41:57;4.20;;;1.70;;
4122;SDS011;2075;51.062;6.920;2022-11-15T10:44:43;2.83;;;2.03;;
4122;SDS011;2075;51.062;6.920;2022-11-15T10:47:30;3.73;;;1.30;;
4122;SDS011;2075;51.062;6.920;2022-11-15T10:50:28;3.50;;;1.93;;
4122;SDS011;2075;51.062;6.920;2022-11-15T10:53:17;2.93;;;2.17;;
4122;SDS011;2075;51.062;6.920;2022-11-15T10:56:07;3.00;;;1.80;;
4122;SDS011;2075;51.062;6.920;2022-11-15T10:58:56;3.42;;;2.00;;
4122;SDS011;2075;51.062;6.920;2022-11-15T11:01:46;6.53;;;1.40;;
4122;SDS011;2075;51.062;6.920;2022-11-15T11:04:40;3.97;;;1.50;;
4122;SDS011;2075;51.062;6.920;2022-11-15T11:07:36;1.40;;;1.30;;
4122;SDS011;2075;51.062;6.920;2022-11-15T11:10:21;3.13;;;1.43;;
4122;SDS011;2075;51.062;6.920;2022-11-15T11:13:13;6.70;;;1.53;;
4122;SDS011;2075;51.062;6.920;2022-11-15T11:16:05;1.63;;;1.10;;
4122;SDS011;2075;51.062;6.920;2022-11-15T11:19:04;1.40;;;1.30;;
4122;SDS011;2075;51.062;6.920;2022-11-15T11:22:01;2.40;;;1.77;;
4122;SDS011;2075;51.062;6.920;2022-11-15T11:24:59;1.43;;;1.20;;
4122;SDS011;2075;51.062;6.920;2022-11-15T11:31:09;1.43;;;1.30;;
4122;SDS011;2075;51.062;6.920;2022-11-15T11:34:11;1.80;;;1.20;;
4122;SDS011;2075;51.062;6.920;2022-11-15T11:37:02;1.40;;;1.30;;
4122;SDS011;2075;51.062;6.920;2022-11-15T11:39:59;1.00;;;1.00;;
4122;SDS011;2075;51.062;6.920;2022-11-15T11:43:00;3.70;;;1.20;;
4122;SDS011;2075;51.062;6.920;2022-11-15T11:46:02;1.83;;;1.57;;
4122;SDS011;2075;51.062;6.920;2022-11-15T11:48:57;2.70;;;1.90;;
4122;SDS011;2075;51.062;6.920;2022-11-15T11:51:51;2.77;;;1.53;;
4122;SDS011;2075;51.062;6.920;2022-11-15T11:54:43;1.60;;;1.20;;
4122;SDS011;2075;51.062;6.920;2022-11-15T11:57:39;3.27;;;1.60;;
4122;SDS011;2075;51.062;6.920;2022-11-15T12:00:31;1.53;;;1.30;;
4122;SDS011;2075;51.062;6.920;2022-11-15T12:03:24;6.93;;;1.50;;
4122;SDS011;2075;51.062;6.920;2022-11-15T12:06:16;3.03;;;1.30;;
4122;SDS011;2075;51.062;6.920;2022-11-15T12:09:12;2.70;;;1.77;;
4122;SDS011;2075;51.062;6.920;2022-11-15T12:12:04;2.78;;;1.30;;
4122;SDS011;2075;51.062;6.920;2022-11-15T12:14:56;4.13;;;1.30;;
4122;SDS011;2075;51.062;6.920;2022-11-15T12:17:46;2.83;;;1.23;;
4122;SDS011;2075;51.062;6.920;2022-11-15T12:20:34;4.00;;;1.20;;
4122;SDS011;2075;51.062;6.920;2022-11-15T12:23:25;2.87;;;1.30;;
4122;SDS011;2075;51.062;6.920;2022-11-15T12:26:15;2.83;;;1.30;;
4122;SDS011;2075;51.062;6.920;2022-11-15T12:29:05;4.10;;;1.60;;
4122;SDS011;2075;51.062;6.920;2022-11-15T12:31:59;2.30;;;1.20;;
4122;SDS011;2075;51.062;6.920;2022-11-15T12:34:47;4.27;;;1.50;;
4122;SDS011;2075;51.062;6.920;2022-11-15T12:43:58;3.17;;;1.27;;
4122;SDS011;2075;51.062;6.920;2022-11-15T12:47:02;4.93;;;1.70;;
4122;SDS011;2075;51.062;6.920;2022-11-15T12:49:55;5.40;;;2.37;;
4122;SDS011;2075;51.062;6.920;2022-11-15T12:52:54;2.83;;;1.40;;
4122;SDS011;2075;51.062;6.920;2022-11-15T12:56:23;2.10;;;1.40;;
4122;SDS011;2075;51.062;6.920;2022-11-15T12:59:09;3.27;;;1.40;;
4122;SDS011;2075;51.062;6.920;2022-11-15T13:01:59;4.13;;;1.80;;
4122;SDS011;2075;51.062;6.920;2022-11-15T13:04:45;1.40;;;1.30;;
4122;SDS011;2075;51.062;6.920;2022-11-15T13:10:42;3.87;;;1.80;;
4122;SDS011;2075;51.062;6.920;2022-11-15T13:13:42;2.60;;;1.50;;
4122;SDS011;2075;51.062;6.920;2022-11-15T13:16:29;1.93;;;1.33;;
4122;SDS011;2075;51.062;6.920;2022-11-15T13:19:15;7.90;;;1.70;;
4122;SDS011;2075;51.062;6.920;2022-11-15T13:22:10;3.57;;;1.70;;
4122;SDS011;2075;51.062;6.920;2022-11-15T13:25:14;2.60;;;2.00;;
4122;SDS011;2075;51.062;6.920;2022-11-15T13:28:09;2.40;;;2.00;;
4122;SDS011;2075;51.062;6.920;2022-11-15T13:31:14;4.77;;;2.00;;
4122;SDS011;2075;51.062;6.920;2022-11-15T13:34:20;3.63;;;1.60;;
4122;SDS011;2075;51.062;6.920;2022-11-15T13:37:11;3.53;;;1.73;;
4122;SDS011;2075;51.062;6.920;2022-11-15T13:40:24;1.70;;;1.60;;
4122;SDS011;2075;51.062;6.920;2022-11-15T13:43:19;2.20;;;2.00;;
4122;SDS011;2075;51.062;6.920;2022-11-15T13:46:15;2.07;;;1.70;;
4122;SDS011;2075;51.062;6.920;2022-11-15T13:49:07;8.13;;;2.17;;
4122;SDS011;2075;51.062;6.920;2022-11-15T13:51:55;3.50;;;1.87;;
4122;SDS011;2075;51.062;6.920;2022-11-15T13:54:45;5.17;;;2.20;;
4122;SDS011;2075;51.062;6.920;2022-11-15T13:57:35;4.30;;;2.33;;
4122;SDS011;2075;51.062;6.920;2022-11-15T14:00:34;3.50;;;2.70;;
4122;SDS011;2075;51.062;6.920;2022-11-15T14:03:24;3.07;;;2.17;;
4122;SDS011;2075;51.062;6.920;2022-11-15T14:06:14;3.20;;;2.20;;
4122;SDS011;2075;51.062;6.920;2022-11-15T14:09:14;5.40;;;2.83;;
4122;SDS011;2075;51.062;6.920;2022-11-15T14:12:24;4.80;;;2.50;;
4122;SDS011;2075;51.062;6.920;2022-11-15T14:15:24;3.03;;;2.37;;
4122;SDS011;2075;51.062;6.920;2022-11-15T14:21:30;4.30;;;2.67;;
4122;SDS011;2075;51.062;6.920;2022-11-15T14:24:19;5.37;;;3.17;;
4122;SDS011;2075;51.062;6.920;2022-11-15T14:27:20;4.37;;;2.60;;
4122;SDS011;2075;51.062;6.920;2022-11-15T14:30:12;2.77;;;2.57;;
4122;SDS011;2075;51.062;6.920;2022-11-15T14:33:00;4.00;;;2.90;;
4122;SDS011;2075;51.062;6.920;2022-11-15T14:35:48;4.53;;;2.70;;
4122;SDS011;2075;51.062;6.920;2022-11-15T14:38:34;4.07;;;2.90;;
4122;SDS011;2075;51.062;6.920;2022-11-15T14:41:21;5.33;;;2.83;;
4122;SDS011;2075;51.062;6.920;2022-11-15T14:44:09;3.40;;;2.63;;
4122;SDS011;2075;51.062;6.920;2022-11-15T14:46:56;2.93;;;2.60;;
4122;SDS011;2075;51.062;6.920;2022-11-15T14:49:42;3.23;;;3.00;;
4122;SDS011;2075;51.062;6.920;2022-11-15T14:52:30;7.27;;;2.77;;
4122;SDS011;2075;51.062;6.920;2022-11-15T14:55:20;4.20;;;2.90;;
4122;SDS011;2075;51.062;6.920;2022-11-15T14:58:11;4.83;;;3.03;;
4122;SDS011;2075;51.062;6.920;2022-11-15T15:00:57;9.13;;;4.90;;
4122;SDS011;2075;51.062;6.920;2022-11-15T15:03:43;5.10;;;3.20;;
4122;SDS011;2075;51.062;6.920;2022-11-15T15:06:29;3.70;;;3.13;;
4122;SDS011;2075;51.062;6.920;2022-11-15T15:09:17;3.07;;;2.50;;
4122;SDS011;2075;51.062;6.920;2022-11-15T15:12:03;3.43;;;2.73;;
4122;SDS011;2075;51.062;6.920;2022-11-15T15:14:50;3.27;;;2.97;;
4122;SDS011;2075;51.062;6.920;2022-11-15T15:17:36;4.33;;;3.23;;
4122;SDS011;2075;51.062;6.920;2022-11-15T15:20:22;5.23;;;3.20;;
4122;SDS011;2075;51.062;6.920;2022-11-15T15:23:10;4.70;;;3.20;;
4122;SDS011;2075;51.062;6.920;2022-11-15T15:26:03;5.40;;;3.20;;
4122;SDS011;2075;51.062;6.920;2022-11-15T15:28:49;6.10;;;3.23;;
4122;SDS011;2075;51.062;6.920;2022-11-15T15:31:35;2.97;;;2.70;;
4122;SDS011;2075;51.062;6.920;2022-11-15T15:34:22;5.70;;;3.20;;
4122;SDS011;2075;51.062;6.920;2022-11-15T15:40:19;5.50;;;2.87;;
4122;SDS011;2075;51.062;6.920;2022-11-15T15:43:09;4.17;;;2.60;;
4122;SDS011;2075;51.062;6.920;2022-11-15T15:45:55;6.00;;;2.97;;
4122;SDS011;2075;51.062;6.920;2022-11-15T15:48:41;7.47;;;2.83;;
4122;SDS011;2075;51.062;6.920;2022-11-15T15:51:28;3.30;;;2.70;;
4122;SDS011;2075;51.062;6.920;2022-11-15T15:54:16;3.03;;;2.83;;
4122;SDS011;2075;51.062;6.920;2022-11-15T15:57:02;6.97;;;3.13;;
4122;SDS011;2075;51.062;6.920;2022-11-15T15:59:51;6.90;;;3.37;;
4122;SDS011;2075;51.062;6.920;2022-11-15T16:02:40;5.57;;;3.10;;
4122;SDS011;2075;51.062;6.920;2022-11-15T16:05:26;3.07;;;2.73;;
4122;SDS011;2075;51.062;6.920;2022-11-15T16:08:16;4.17;;;2.83;;
4122;SDS011;2075;51.062;6.920;2022-11-15T16:11:03;3.80;;;2.57;;
4122;SDS011;2075;51.062;6.920;2022-11-15T16:13:49;11.07;;;3.13;;
4122;SDS011;2075;51.062;6.920;2022-11-15T16:16:37;6.93;;;3.10;;
4122;SDS011;2075;51.062;6.920;2022-11-15T16:19:22;2.57;;;2.37;;
4122;SDS011;2075;51.062;6.920;2022-11-15T16:22:08;4.80;;;2.70;;
4122;SDS011;2075;51.062;6.920;2022-11-15T16:24:53;8.10;;;3.50;;
4122;SDS011;2075;51.062;6.920;2022-11-15T16:27:38;2.83;;;2.50;;
4122;SDS011;2075;51.062;6.920;2022-11-15T16:30:28;5.77;;;3.27;;
4122;SDS011;2075;51.062;6.920;2022-11-15T16:33:15;4.20;;;2.77;;
4122;SDS011;2075;51.062;6.920;2022-11-15T16:36:04;5.23;;;2.83;;
4122;SDS011;2075;51.062;6.920;2022-11-15T16:38:51;5.00;;;2.77;;
4122;SDS011;2075;51.062;6.920;2022-11-15T16:41:37;3.93;;;2.80;;
4122;SDS011;2075;51.062;6.920;2022-11-15T16:44:22;5.73;;;3.17;;
4122;SDS011;2075;51.062;6.920;2022-11-15T16:47:11;5.43;;;3.13;;
4122;SDS011;2075;51.062;6.920;2022-11-15T16:50:02;2.73;;;2.57;;
4122;SDS011;2075;51.062;6.920;2022-11-15T16:52:49;3.40;;;2.50;;
4122;SDS011;2075;51.062;6.920;2022-11-15T16:55:36;2.20;;;2.10;;
4122;SDS011;2075;51.062;6.920;2022-11-15T16:58:21;3.57;;;2.37;;
4122;SDS011;2075;51.062;6.920;2022-11-15T17:01:10;2.90;;;2.60;;
4122;SDS011;2075;51.062;6.920;2022-11-15T17:04:02;2.77;;;2.57;;
4122;SDS011;2075;51.062;6.920;2022-11-15T17:06:56;7.33;;;2.80;;
4122;SDS011;2075;51.062;6.920;2022-11-15T17:09:42;3.13;;;2.30;;
4122;SDS011;2075;51.062;6.920;2022-11-15T17:12:27;2.60;;;2.40;;
4122;SDS011;2075;51.062;6.920;2022-11-15T17:15:13;2.80;;;2.20;;
4122;SDS011;2075;51.062;6.920;2022-11-15T17:17:59;3.77;;;2.70;;
4122;SDS011;2075;51.062;6.920;2022-11-15T17:20:44;3.00;;;2.77;;
4122;SDS011;2075;51.062;6.920;2022-11-15T17:23:31;2.73;;;2.53;;
4122;SDS011;2075;51.062;6.920;2022-11-15T17:26:16;2.27;;;2.17;;
4122;SDS011;2075;51.062;6.920;2022-11-15T17:29:02;2.60;;;2.40;;
4122;SDS011;2075;51.062;6.920;2022-11-15T17:31:50;3.00;;;2.70;;
4122;SDS011;2075;51.062;6.920;2022-11-15T17:34:36;3.97;;;2.80;;
4122;SDS011;2075;51.062;6.920;2022-11-15T17:37:21;2.43;;;2.23;;
4122;SDS011;2075;51.062;6.920;2022-11-15T17:40:08;4.03;;;3.23;;
4122;SDS011;2075;51.062;6.920;2022-11-15T17:42:54;2.80;;;2.50;;
4122;SDS011;2075;51.062;6.920;2022-11-15T17:45:40;2.80;;;2.60;;
4122;SDS011;2075;51.062;6.920;2022-11-15T17:48:25;8.10;;;2.60;;
4122;SDS011;2075;51.062;6.920;2022-11-15T17:51:11;2.27;;;2.17;;
4122;SDS011;2075;51.062;6.920;2022-11-15T17:53:58;2.60;;;2.40;;
4122;SDS011;2075;51.062;6.920;2022-11-15T17:56:45;2.60;;;2.50;;
4122;SDS011;2075;51.062;6.920;2022-11-15T17:59:31;5.07;;;3.17;;
4122;SDS011;2075;51.062;6.920;2022-11-15T18:02:16;8.10;;;3.60;;
4122;SDS011;2075;51.062;6.920;2022-11-15T18:05:01;3.40;;;3.10;;
4122;SDS011;2075;51.062;6.920;2022-11-15T18:07:47;3.77;;;3.40;;
4122;SDS011;2075;51.062;6.920;2022-11-15T18:10:33;3.73;;;3.30;;
4122;SDS011;2075;51.062;6.920;2022-11-15T18:13:19;4.73;;;3.30;;
4122;SDS011;2075;51.062;6.920;2022-11-15T18:16:05;3.87;;;3.50;;
4122;SDS011;2075;51.062;6.920;2022-11-15T18:18:54;6.37;;;3.30;;
4122;SDS011;2075;51.062;6.920;2022-11-15T18:21:39;5.80;;;4.00;;
4122;SDS011;2075;51.062;6.920;2022-11-15T18:24:41;5.90;;;3.57;;
4122;SDS011;2075;51.062;6.920;2022-11-15T18:27:27;9.97;;;4.13;;
4122;SDS011;2075;51.062;6.920;2022-11-15T18:30:14;4.90;;;4.33;;
4122;SDS011;2075;51.062;6.920;2022-11-15T18:33:00;9.27;;;4.50;;
4122;SDS011;2075;51.062;6.920;2022-11-15T18:35:45;6.40;;;4.73;;
4122;SDS011;2075;51.062;6.920;2022-11-15T18:38:31;9.17;;;5.00;;
4122;SDS011;2075;51.062;6.920;2022-11-15T18:41:17;7.07;;;4.80;;
4122;SDS011;2075;51.062;6.920;2022-11-15T18:44:07;6.93;;;5.00;;
4122;SDS011;2075;51.062;6.920;2022-11-15T18:46:54;7.07;;;4.77;;
4122;SDS011;2075;51.062;6.920;2022-11-15T18:49:40;10.37;;;5.17;;
4122;SDS011;2075;51.062;6.920;2022-11-15T18:52:26;11.93;;;5.50;;
4122;SDS011;2075;51.062;6.920;2022-11-15T18:55:11;6.90;;;5.00;;
4122;SDS011;2075;51.062;6.920;2022-11-15T18:57:57;6.60;;;5.13;;
4122;SDS011;2075;51.062;6.920;2022-11-15T19:00:42;9.23;;;5.03;;
4122;SDS011;2075;51.062;6.920;2022-11-15T19:03:31;9.10;;;5.43;;
4122;SDS011;2075;51.062;6.920;2022-11-15T19:06:18;7.90;;;5.50;;
4122;SDS011;2075;51.062;6.920;2022-11-15T19:09:04;5.73;;;5.20;;
4122;SDS011;2075;51.062;6.920;2022-11-15T19:11:50;10.77;;;6.30;;
4122;SDS011;2075;51.062;6.920;2022-11-15T19:14:36;8.80;;;6.30;;
4122;SDS011;2075;51.062;6.920;2022-11-15T19:17:21;6.93;;;5.70;;
4122;SDS011;2075;51.062;6.920;2022-11-15T19:20:09;7.93;;;5.97;;
4122;SDS011;2075;51.062;6.920;2022-11-15T19:22:55;7.60;;;6.03;;